sensor_id;sensor_type;location;lat;lon;timestamp;P1;durP1;ratioP1;P2;durP2;ratioP2
14965;SDS011;7577;45.226;5.798;2022-10-16T05:50:34;1.87;;;1.10;;
14965;SDS011;7577;45.226;5.798;2022-10-16T05:53:26;3.13;;;1.00;;
14965;SDS011;7577;45.226;5.798;2022-10-16T06:32:14;1.37;;;1.10;;
14965;SDS011;7577;45.226;5.798;2022-10-16T07:05:38;1.70;;;1.30;;
14965;SDS011;7577;45.226;5.798;2022-10-16T07:08:32;1.77;;;0.97;;
14965;SDS011;7577;45.226;5.798;2022-10-16T07:11:34;2.97;;;1.30;;
14965;SDS011;7577;45.226;5.798;2022-10-16T07:14:08;1.40;;;1.13;;
14965;SDS011;7577;45.226;5.798;2022-10-16T07:38:56;1.07;;;0.80;;
14965;SDS011;7577;45.226;5.798;2022-10-16T07:41:26;2.40;;;0.83;;
14965;SDS011;7577;45.226;5.798;2022-10-16T07:43:57;1.30;;;0.80;;
14965;SDS011;7577;45.226;5.798;2022-10-16T07:57:21;0.90;;;0.90;;
14965;SDS011;7577;45.226;5.798;2022-10-16T08:00:08;3.00;;;1.20;;
14965;SDS011;7577;45.226;5.798;2022-10-16T08:02:41;1.33;;;0.80;;
14965;SDS011;7577;45.226;5.798;2022-10-16T08:05:11;2.83;;;1.10;;
14965;SDS011;7577;45.226;5.798;2022-10-16T08:07:47;2.83;;;1.20;;
14965;SDS011;7577;45.226;5.798;2022-10-16T08:10:18;2.43;;;0.97;;
14965;SDS011;7577;45.226;5.798;2022-10-16T08:12:53;1.57;;;1.10;;
14965;SDS011;7577;45.226;5.798;2022-10-16T08:15:23;4.07;;;0.80;;
14965;SDS011;7577;45.226;5.798;2022-10-16T08:17:57;1.60;;;0.77;;
14965;SDS011;7577;45.226;5.798;2022-10-16T08:20:29;2.47;;;0.73;;
14965;SDS011;7577;45.226;5.798;2022-10-16T08:23:06;1.40;;;0.80;;
14965;SDS011;7577;45.226;5.798;2022-10-16T08:25:37;1.00;;;0.80;;
14965;SDS011;7577;45.226;5.798;2022-10-16T08:28:23;2.10;;;0.93;;
14965;SDS011;7577;45.226;5.798;2022-10-16T08:30:55;2.20;;;0.80;;
14965;SDS011;7577;45.226;5.798;2022-10-16T08:33:27;1.87;;;0.80;;
14965;SDS011;7577;45.226;5.798;2022-10-16T08:35:57;2.63;;;0.80;;
14965;SDS011;7577;45.226;5.798;2022-10-16T08:41:39;3.23;;;1.30;;
14965;SDS011;7577;45.226;5.798;2022-10-16T08:44:37;3.27;;;1.17;;
14965;SDS011;7577;45.226;5.798;2022-10-16T08:47:19;3.30;;;1.10;;
14965;SDS011;7577;45.226;5.798;2022-10-16T09:05:54;4.80;;;1.07;;
14965;SDS011;7577;45.226;5.798;2022-10-16T09:11:45;3.20;;;1.20;;
14965;SDS011;7577;45.226;5.798;2022-10-16T09:14:27;1.20;;;0.90;;
14965;SDS011;7577;45.226;5.798;2022-10-16T09:17:22;2.20;;;1.20;;
14965;SDS011;7577;45.226;5.798;2022-10-16T09:19:58;2.10;;;0.93;;
14965;SDS011;7577;45.226;5.798;2022-10-16T09:22:48;2.00;;;0.90;;
14965;SDS011;7577;45.226;5.798;2022-10-16T09:25:31;1.20;;;0.97;;
14965;SDS011;7577;45.226;5.798;2022-10-16T09:28:02;3.63;;;1.00;;
14965;SDS011;7577;45.226;5.798;2022-10-16T09:30:47;1.87;;;1.00;;
14965;SDS011;7577;45.226;5.798;2022-10-16T09:33:24;3.93;;;1.20;;
14965;SDS011;7577;45.226;5.798;2022-10-16T09:36:09;4.90;;;1.27;;
14965;SDS011;7577;45.226;5.798;2022-10-16T09:38:43;1.73;;;1.00;;
14965;SDS011;7577;45.226;5.798;2022-10-16T09:41:23;4.23;;;1.30;;
14965;SDS011;7577;45.226;5.798;2022-10-16T09:43:54;2.17;;;0.90;;
14965;SDS011;7577;45.226;5.798;2022-10-16T09:46:29;2.77;;;0.93;;
14965;SDS011;7577;45.226;5.798;2022-10-16T09:49:02;2.20;;;0.70;;
14965;SDS011;7577;45.226;5.798;2022-10-16T09:51:36;3.67;;;0.90;;
14965;SDS011;7577;45.226;5.798;2022-10-16T09:54:24;1.60;;;0.90;;
14965;SDS011;7577;45.226;5.798;2022-10-16T09:57:03;1.00;;;0.70;;
14965;SDS011;7577;45.226;5.798;2022-10-16T09:59:46;2.53;;;0.90;;
14965;SDS011;7577;45.226;5.798;2022-10-16T10:02:27;2.20;;;1.00;;
14965;SDS011;7577;45.226;5.798;2022-10-16T10:05:24;1.33;;;1.00;;
14965;SDS011;7577;45.226;5.798;2022-10-16T10:08:12;1.77;;;1.00;;
14965;SDS011;7577;45.226;5.798;2022-10-16T10:10:55;2.37;;;1.10;;
14965;SDS011;7577;45.226;5.798;2022-10-16T10:16:24;0.80;;;0.80;;
14965;SDS011;7577;45.226;5.798;2022-10-16T10:18:58;2.10;;;0.80;;
14965;SDS011;7577;45.226;5.798;2022-10-16T10:21:39;0.87;;;0.70;;
14965;SDS011;7577;45.226;5.798;2022-10-16T10:24:13;2.40;;;1.00;;
14965;SDS011;7577;45.226;5.798;2022-10-16T10:26:46;1.57;;;1.00;;
14965;SDS011;7577;45.226;5.798;2022-10-16T10:29:34;5.70;;;1.17;;
14965;SDS011;7577;45.226;5.798;2022-10-16T10:32:12;1.83;;;1.00;;
14965;SDS011;7577;45.226;5.798;2022-10-16T10:34:51;2.03;;;0.90;;
14965;SDS011;7577;45.226;5.798;2022-10-16T10:37:30;1.03;;;1.00;;
14965;SDS011;7577;45.226;5.798;2022-10-16T10:40:08;2.37;;;0.90;;
14965;SDS011;7577;45.226;5.798;2022-10-16T10:42:42;5.40;;;1.00;;
14965;SDS011;7577;45.226;5.798;2022-10-16T10:45:17;1.40;;;0.80;;
14965;SDS011;7577;45.226;5.798;2022-10-16T10:47:56;1.23;;;1.07;;
14965;SDS011;7577;45.226;5.798;2022-10-16T10:50:36;3.43;;;1.10;;
14965;SDS011;7577;45.226;5.798;2022-10-16T10:53:26;2.43;;;1.10;;
14965;SDS011;7577;45.226;5.798;2022-10-16T10:56:05;1.60;;;0.90;;
14965;SDS011;7577;45.226;5.798;2022-10-16T10:58:46;1.37;;;0.80;;
14965;SDS011;7577;45.226;5.798;2022-10-16T11:01:22;2.03;;;1.00;;
14965;SDS011;7577;45.226;5.798;2022-10-16T11:04:00;4.27;;;0.93;;
14965;SDS011;7577;45.226;5.798;2022-10-16T11:06:36;3.17;;;1.00;;
14965;SDS011;7577;45.226;5.798;2022-10-16T11:09:10;3.13;;;1.00;;
14965;SDS011;7577;45.226;5.798;2022-10-16T11:11:44;0.80;;;0.80;;
14965;SDS011;7577;45.226;5.798;2022-10-16T11:14:21;2.13;;;1.20;;
14965;SDS011;7577;45.226;5.798;2022-10-16T11:16:59;1.90;;;1.03;;
14965;SDS011;7577;45.226;5.798;2022-10-16T11:19:34;1.27;;;0.93;;
14965;SDS011;7577;45.226;5.798;2022-10-16T11:22:15;2.03;;;1.30;;
14965;SDS011;7577;45.226;5.798;2022-10-16T11:27:43;2.07;;;1.17;;
14965;SDS011;7577;45.226;5.798;2022-10-16T11:30:39;8.33;;;1.53;;
14965;SDS011;7577;45.226;5.798;2022-10-16T11:33:25;2.40;;;1.10;;
14965;SDS011;7577;45.226;5.798;2022-10-16T11:36:03;1.97;;;1.20;;
14965;SDS011;7577;45.226;5.798;2022-10-16T11:38:39;4.23;;;1.40;;
14965;SDS011;7577;45.226;5.798;2022-10-16T11:41:27;2.17;;;1.00;;
14965;SDS011;7577;45.226;5.798;2022-10-16T11:50:54;2.97;;;1.23;;
14965;SDS011;7577;45.226;5.798;2022-10-16T11:53:50;1.97;;;1.33;;
14965;SDS011;7577;45.226;5.798;2022-10-16T11:56:37;1.53;;;1.10;;
14965;SDS011;7577;45.226;5.798;2022-10-16T11:59:15;1.20;;;1.10;;
14965;SDS011;7577;45.226;5.798;2022-10-16T12:01:50;1.60;;;0.93;;
14965;SDS011;7577;45.226;5.798;2022-10-16T12:04:25;5.20;;;1.30;;
14965;SDS011;7577;45.226;5.798;2022-10-16T12:06:59;2.67;;;1.27;;
14965;SDS011;7577;45.226;5.798;2022-10-16T12:42:23;1.47;;;1.03;;
14965;SDS011;7577;45.226;5.798;2022-10-16T12:45:02;1.23;;;0.93;;
14965;SDS011;7577;45.226;5.798;2022-10-16T12:47:48;1.50;;;1.10;;
14965;SDS011;7577;45.226;5.798;2022-10-16T12:50:25;1.20;;;0.97;;
14965;SDS011;7577;45.226;5.798;2022-10-16T12:52:58;5.60;;;1.20;;
14965;SDS011;7577;45.226;5.798;2022-10-16T12:55:33;4.33;;;1.60;;
14965;SDS011;7577;45.226;5.798;2022-10-16T12:59:01;1.67;;;0.90;;
14965;SDS011;7577;45.226;5.798;2022-10-16T13:01:42;2.53;;;1.03;;
14965;SDS011;7577;45.226;5.798;2022-10-16T13:10:20;16.50;;;2.57;;
14965;SDS011;7577;45.226;5.798;2022-10-16T13:42:10;2.13;;;0.90;;
14965;SDS011;7577;45.226;5.798;2022-10-16T13:44:51;1.73;;;0.80;;
14965;SDS011;7577;45.226;5.798;2022-10-16T13:47:33;0.87;;;0.87;;
14965;SDS011;7577;45.226;5.798;2022-10-16T13:50:11;1.83;;;0.90;;
14965;SDS011;7577;45.226;5.798;2022-10-16T14:04:00;1.90;;;0.80;;
14965;SDS011;7577;45.226;5.798;2022-10-16T14:06:42;1.37;;;0.80;;
14965;SDS011;7577;45.226;5.798;2022-10-16T14:20:27;1.53;;;0.90;;
14965;SDS011;7577;45.226;5.798;2022-10-16T14:25:40;1.73;;;0.90;;
14965;SDS011;7577;45.226;5.798;2022-10-16T14:28:18;2.97;;;0.80;;
14965;SDS011;7577;45.226;5.798;2022-10-16T14:30:52;0.93;;;0.70;;
14965;SDS011;7577;45.226;5.798;2022-10-16T14:33:43;1.10;;;0.90;;
14965;SDS011;7577;45.226;5.798;2022-10-16T14:36:14;1.30;;;1.00;;
14965;SDS011;7577;45.226;5.798;2022-10-16T14:38:51;1.13;;;0.80;;
14965;SDS011;7577;45.226;5.798;2022-10-16T14:41:30;1.80;;;0.70;;
14965;SDS011;7577;45.226;5.798;2022-10-16T14:44:14;0.93;;;0.80;;
14965;SDS011;7577;45.226;5.798;2022-10-16T14:46:45;0.80;;;0.80;;
14965;SDS011;7577;45.226;5.798;2022-10-16T14:49:19;2.40;;;0.90;;
14965;SDS011;7577;45.226;5.798;2022-10-16T14:51:59;2.40;;;0.83;;
14965;SDS011;7577;45.226;5.798;2022-10-16T14:54:30;0.97;;;0.83;;
14965;SDS011;7577;45.226;5.798;2022-10-16T14:57:00;1.87;;;0.90;;
14965;SDS011;7577;45.226;5.798;2022-10-16T14:59:55;1.43;;;0.80;;
14965;SDS011;7577;45.226;5.798;2022-10-16T15:02:27;1.57;;;0.77;;
14965;SDS011;7577;45.226;5.798;2022-10-16T15:04:59;1.03;;;0.93;;
14965;SDS011;7577;45.226;5.798;2022-10-16T15:07:32;0.73;;;0.70;;
14965;SDS011;7577;45.226;5.798;2022-10-16T15:10:16;1.30;;;1.10;;
14965;SDS011;7577;45.226;5.798;2022-10-16T15:12:48;1.00;;;0.90;;
14965;SDS011;7577;45.226;5.798;2022-10-16T15:15:24;3.80;;;0.90;;
14965;SDS011;7577;45.226;5.798;2022-10-16T15:18:07;0.90;;;0.80;;
14965;SDS011;7577;45.226;5.798;2022-10-16T15:20:38;2.83;;;0.87;;
14965;SDS011;7577;45.226;5.798;2022-10-16T15:23:24;1.77;;;1.30;;
14965;SDS011;7577;45.226;5.798;2022-10-16T15:39:40;4.27;;;1.07;;
14965;SDS011;7577;45.226;5.798;2022-10-16T15:44:51;1.13;;;0.97;;
14965;SDS011;7577;45.226;5.798;2022-10-16T15:47:21;2.37;;;1.20;;
14965;SDS011;7577;45.226;5.798;2022-10-16T15:49:51;3.53;;;1.20;;
14965;SDS011;7577;45.226;5.798;2022-10-16T15:52:21;1.40;;;0.80;;
14965;SDS011;7577;45.226;5.798;2022-10-16T15:54:52;3.17;;;1.00;;
14965;SDS011;7577;45.226;5.798;2022-10-16T15:57:22;3.63;;;1.40;;
14965;SDS011;7577;45.226;5.798;2022-10-16T15:59:52;1.57;;;1.17;;
14965;SDS011;7577;45.226;5.798;2022-10-16T16:02:23;2.30;;;1.10;;
14965;SDS011;7577;45.226;5.798;2022-10-16T16:05:07;1.70;;;1.13;;
14965;SDS011;7577;45.226;5.798;2022-10-16T16:07:39;1.63;;;1.10;;
14965;SDS011;7577;45.226;5.798;2022-10-16T16:10:09;3.37;;;1.20;;
14965;SDS011;7577;45.226;5.798;2022-10-16T16:12:41;2.67;;;1.37;;
14965;SDS011;7577;45.226;5.798;2022-10-16T16:15:13;1.57;;;1.10;;
14965;SDS011;7577;45.226;5.798;2022-10-16T16:17:43;2.20;;;1.10;;
14965;SDS011;7577;45.226;5.798;2022-10-16T16:20:13;2.77;;;1.17;;
14965;SDS011;7577;45.226;5.798;2022-10-16T16:22:44;2.40;;;1.13;;
14965;SDS011;7577;45.226;5.798;2022-10-16T16:25:28;1.93;;;0.97;;
14965;SDS011;7577;45.226;5.798;2022-10-16T16:27:59;2.73;;;1.10;;
14965;SDS011;7577;45.226;5.798;2022-10-16T16:30:29;1.33;;;1.20;;
14965;SDS011;7577;45.226;5.798;2022-10-16T16:32:59;2.30;;;1.20;;
14965;SDS011;7577;45.226;5.798;2022-10-16T16:35:42;2.57;;;1.30;;
14965;SDS011;7577;45.226;5.798;2022-10-16T16:38:12;4.27;;;1.20;;
14965;SDS011;7577;45.226;5.798;2022-10-16T16:40:42;1.50;;;1.37;;
14965;SDS011;7577;45.226;5.798;2022-10-16T16:43:13;1.23;;;1.10;;
14965;SDS011;7577;45.226;5.798;2022-10-16T16:45:43;2.93;;;1.37;;
14965;SDS011;7577;45.226;5.798;2022-10-16T16:48:13;2.70;;;1.40;;
14965;SDS011;7577;45.226;5.798;2022-10-16T16:50:43;2.23;;;1.10;;
14965;SDS011;7577;45.226;5.798;2022-10-16T16:53:25;2.77;;;1.10;;
14965;SDS011;7577;45.226;5.798;2022-10-16T16:55:55;2.33;;;1.13;;
14965;SDS011;7577;45.226;5.798;2022-10-16T16:58:47;1.60;;;1.40;;
14965;SDS011;7577;45.226;5.798;2022-10-16T17:01:18;2.77;;;1.23;;
14965;SDS011;7577;45.226;5.798;2022-10-16T17:03:49;2.33;;;1.17;;
14965;SDS011;7577;45.226;5.798;2022-10-16T17:06:22;3.13;;;1.27;;
14965;SDS011;7577;45.226;5.798;2022-10-16T17:09:04;2.13;;;1.33;;
14965;SDS011;7577;45.226;5.798;2022-10-16T17:11:36;2.17;;;1.23;;
14965;SDS011;7577;45.226;5.798;2022-10-16T17:14:08;1.63;;;1.20;;
14965;SDS011;7577;45.226;5.798;2022-10-16T17:16:39;2.73;;;1.17;;
14965;SDS011;7577;45.226;5.798;2022-10-16T17:19:12;2.43;;;1.20;;
14965;SDS011;7577;45.226;5.798;2022-10-16T17:21:44;2.93;;;1.20;;
14965;SDS011;7577;45.226;5.798;2022-10-16T17:24:16;1.83;;;0.87;;
14965;SDS011;7577;45.226;5.798;2022-10-16T17:26:59;1.50;;;1.20;;
14965;SDS011;7577;45.226;5.798;2022-10-16T17:29:30;1.67;;;1.20;;
14965;SDS011;7577;45.226;5.798;2022-10-16T17:32:00;1.53;;;1.07;;
14965;SDS011;7577;45.226;5.798;2022-10-16T17:34:31;1.10;;;0.93;;
14965;SDS011;7577;45.226;5.798;2022-10-16T17:37:01;2.13;;;1.40;;
14965;SDS011;7577;45.226;5.798;2022-10-16T17:39:32;2.40;;;1.83;;
14965;SDS011;7577;45.226;5.798;2022-10-16T17:42:03;1.63;;;1.20;;
14965;SDS011;7577;45.226;5.798;2022-10-16T17:44:33;2.63;;;1.30;;
14965;SDS011;7577;45.226;5.798;2022-10-16T17:47:03;3.67;;;1.10;;
14965;SDS011;7577;45.226;5.798;2022-10-16T17:49:43;2.13;;;1.40;;
14965;SDS011;7577;45.226;5.798;2022-10-16T17:52:13;3.70;;;1.50;;
14965;SDS011;7577;45.226;5.798;2022-10-16T17:54:43;1.50;;;1.40;;
14965;SDS011;7577;45.226;5.798;2022-10-16T17:57:14;1.47;;;1.33;;
14965;SDS011;7577;45.226;5.798;2022-10-16T17:59:44;1.80;;;1.27;;
14965;SDS011;7577;45.226;5.798;2022-10-16T18:02:14;3.00;;;1.30;;
14965;SDS011;7577;45.226;5.798;2022-10-16T18:04:45;2.30;;;1.20;;
14965;SDS011;7577;45.226;5.798;2022-10-16T18:07:15;2.20;;;1.30;;
14965;SDS011;7577;45.226;5.798;2022-10-16T18:09:45;2.23;;;1.00;;
14965;SDS011;7577;45.226;5.798;2022-10-16T18:12:16;3.10;;;1.30;;
14965;SDS011;7577;45.226;5.798;2022-10-16T18:14:48;2.47;;;1.37;;
14965;SDS011;7577;45.226;5.798;2022-10-16T18:17:19;2.37;;;1.30;;
14965;SDS011;7577;45.226;5.798;2022-10-16T18:20:04;2.80;;;1.30;;
14965;SDS011;7577;45.226;5.798;2022-10-16T18:22:36;2.90;;;1.30;;
14965;SDS011;7577;45.226;5.798;2022-10-16T18:25:06;3.17;;;1.60;;
14965;SDS011;7577;45.226;5.798;2022-10-16T18:27:37;2.70;;;1.33;;
14965;SDS011;7577;45.226;5.798;2022-10-16T18:30:07;2.47;;;1.30;;
14965;SDS011;7577;45.226;5.798;2022-10-16T18:32:38;5.53;;;1.67;;
14965;SDS011;7577;45.226;5.798;2022-10-16T18:35:08;1.50;;;1.40;;
14965;SDS011;7577;45.226;5.798;2022-10-16T18:37:39;2.90;;;1.30;;
14965;SDS011;7577;45.226;5.798;2022-10-16T18:40:09;3.03;;;1.53;;
14965;SDS011;7577;45.226;5.798;2022-10-16T18:42:49;2.27;;;1.30;;
14965;SDS011;7577;45.226;5.798;2022-10-16T18:45:19;1.87;;;1.27;;
14965;SDS011;7577;45.226;5.798;2022-10-16T18:47:50;3.33;;;1.60;;
14965;SDS011;7577;45.226;5.798;2022-10-16T18:50:21;2.87;;;1.30;;
14965;SDS011;7577;45.226;5.798;2022-10-16T18:52:51;2.67;;;1.40;;
14965;SDS011;7577;45.226;5.798;2022-10-16T18:55:21;2.63;;;1.23;;
14965;SDS011;7577;45.226;5.798;2022-10-16T18:57:51;2.90;;;1.63;;
14965;SDS011;7577;45.226;5.798;2022-10-16T19:00:22;2.10;;;1.30;;
14965;SDS011;7577;45.226;5.798;2022-10-16T19:03:05;2.90;;;1.50;;
14965;SDS011;7577;45.226;5.798;2022-10-16T19:05:35;3.50;;;1.50;;
14965;SDS011;7577;45.226;5.798;2022-10-16T19:08:06;1.47;;;1.37;;
14965;SDS011;7577;45.226;5.798;2022-10-16T19:10:37;2.47;;;1.50;;
14965;SDS011;7577;45.226;5.798;2022-10-16T19:13:08;1.57;;;1.40;;
14965;SDS011;7577;45.226;5.798;2022-10-16T19:15:42;1.80;;;1.37;;
14965;SDS011;7577;45.226;5.798;2022-10-16T19:18:12;2.70;;;1.47;;
14965;SDS011;7577;45.226;5.798;2022-10-16T19:21:00;1.50;;;1.20;;
14965;SDS011;7577;45.226;5.798;2022-10-16T19:23:31;1.73;;;1.30;;
14965;SDS011;7577;45.226;5.798;2022-10-16T19:26:02;2.60;;;1.40;;
14965;SDS011;7577;45.226;5.798;2022-10-16T19:28:35;1.77;;;1.23;;
14965;SDS011;7577;45.226;5.798;2022-10-16T19:31:06;2.47;;;1.33;;
14965;SDS011;7577;45.226;5.798;2022-10-16T19:33:37;2.13;;;1.30;;
14965;SDS011;7577;45.226;5.798;2022-10-16T19:36:09;2.30;;;1.20;;
14965;SDS011;7577;45.226;5.798;2022-10-16T19:38:52;1.10;;;1.00;;
14965;SDS011;7577;45.226;5.798;2022-10-16T19:41:24;2.00;;;1.17;;
14965;SDS011;7577;45.226;5.798;2022-10-16T19:43:59;1.70;;;1.33;;
14965;SDS011;7577;45.226;5.798;2022-10-16T19:46:31;2.20;;;1.00;;
14965;SDS011;7577;45.226;5.798;2022-10-16T19:49:03;1.37;;;1.20;;
14965;SDS011;7577;45.226;5.798;2022-10-16T19:51:35;2.10;;;1.23;;
14965;SDS011;7577;45.226;5.798;2022-10-16T19:54:07;1.40;;;1.30;;
14965;SDS011;7577;45.226;5.798;2022-10-16T19:56:41;2.20;;;1.37;;
14965;SDS011;7577;45.226;5.798;2022-10-16T19:59:23;1.27;;;1.03;;
14965;SDS011;7577;45.226;5.798;2022-10-16T20:01:53;2.63;;;1.27;;
14965;SDS011;7577;45.226;5.798;2022-10-16T20:04:23;2.17;;;1.23;;
14965;SDS011;7577;45.226;5.798;2022-10-16T20:06:53;2.47;;;1.20;;
14965;SDS011;7577;45.226;5.798;2022-10-16T20:09:23;1.50;;;1.20;;
14965;SDS011;7577;45.226;5.798;2022-10-16T20:11:54;2.00;;;1.20;;
14965;SDS011;7577;45.226;5.798;2022-10-16T20:14:24;2.00;;;1.33;;
14965;SDS011;7577;45.226;5.798;2022-10-16T20:16:55;2.57;;;1.30;;
14965;SDS011;7577;45.226;5.798;2022-10-16T20:19:25;2.03;;;1.20;;
14965;SDS011;7577;45.226;5.798;2022-10-16T20:21:55;2.27;;;1.40;;
14965;SDS011;7577;45.226;5.798;2022-10-16T20:24:26;1.53;;;1.30;;
14965;SDS011;7577;45.226;5.798;2022-10-16T20:26:57;2.33;;;1.40;;
14965;SDS011;7577;45.226;5.798;2022-10-16T20:29:27;1.50;;;1.40;;
14965;SDS011;7577;45.226;5.798;2022-10-16T20:31:57;2.23;;;1.23;;
14965;SDS011;7577;45.226;5.798;2022-10-16T20:34:44;2.87;;;1.20;;
14965;SDS011;7577;45.226;5.798;2022-10-16T20:37:15;4.13;;;1.37;;
14965;SDS011;7577;45.226;5.798;2022-10-16T20:39:47;1.60;;;1.20;;
14965;SDS011;7577;45.226;5.798;2022-10-16T20:42:17;2.73;;;1.70;;
14965;SDS011;7577;45.226;5.798;2022-10-16T20:45:02;2.43;;;1.40;;
14965;SDS011;7577;45.226;5.798;2022-10-16T20:47:33;2.10;;;1.60;;
14965;SDS011;7577;45.226;5.798;2022-10-16T20:50:07;2.33;;;1.50;;
14965;SDS011;7577;45.226;5.798;2022-10-16T20:52:50;3.93;;;1.60;;
14965;SDS011;7577;45.226;5.798;2022-10-16T20:55:20;3.17;;;1.50;;
14965;SDS011;7577;45.226;5.798;2022-10-16T20:57:51;1.50;;;1.30;;
14965;SDS011;7577;45.226;5.798;2022-10-16T21:00:21;2.63;;;1.50;;
14965;SDS011;7577;45.226;5.798;2022-10-16T21:02:52;3.00;;;1.70;;
14965;SDS011;7577;45.226;5.798;2022-10-16T21:05:23;2.67;;;1.70;;
14965;SDS011;7577;45.226;5.798;2022-10-16T21:07:55;1.83;;;1.50;;
14965;SDS011;7577;45.226;5.798;2022-10-16T21:10:28;3.77;;;2.00;;
14965;SDS011;7577;45.226;5.798;2022-10-16T21:12:59;3.83;;;1.87;;
14965;SDS011;7577;45.226;5.798;2022-10-16T21:15:29;2.97;;;1.90;;
14965;SDS011;7577;45.226;5.798;2022-10-16T21:18:00;2.80;;;1.80;;
14965;SDS011;7577;45.226;5.798;2022-10-16T21:20:30;3.70;;;1.53;;
14965;SDS011;7577;45.226;5.798;2022-10-16T21:23:01;3.77;;;1.73;;
14965;SDS011;7577;45.226;5.798;2022-10-16T21:25:31;4.60;;;1.60;;
14965;SDS011;7577;45.226;5.798;2022-10-16T21:28:12;2.77;;;1.70;;
14965;SDS011;7577;45.226;5.798;2022-10-16T21:30:42;1.83;;;1.43;;
14965;SDS011;7577;45.226;5.798;2022-10-16T21:33:30;2.23;;;1.60;;
14965;SDS011;7577;45.226;5.798;2022-10-16T21:36:00;3.47;;;1.67;;
14965;SDS011;7577;45.226;5.798;2022-10-16T21:38:32;2.13;;;1.40;;
14965;SDS011;7577;45.226;5.798;2022-10-16T21:41:06;3.60;;;1.60;;
14965;SDS011;7577;45.226;5.798;2022-10-16T21:43:41;1.40;;;1.23;;
14965;SDS011;7577;45.226;5.798;2022-10-16T21:46:30;2.67;;;1.73;;
14965;SDS011;7577;45.226;5.798;2022-10-16T21:49:02;2.23;;;1.57;;
14965;SDS011;7577;45.226;5.798;2022-10-16T21:51:34;1.87;;;1.23;;
14965;SDS011;7577;45.226;5.798;2022-10-16T21:54:19;2.37;;;1.27;;
14965;SDS011;7577;45.226;5.798;2022-10-16T21:56:51;3.10;;;1.57;;
14965;SDS011;7577;45.226;5.798;2022-10-16T21:59:21;3.00;;;1.40;;
14965;SDS011;7577;45.226;5.798;2022-10-16T22:01:52;3.47;;;1.40;;
14965;SDS011;7577;45.226;5.798;2022-10-16T22:04:23;2.47;;;1.53;;
14965;SDS011;7577;45.226;5.798;2022-10-16T22:06:53;5.60;;;1.60;;
14965;SDS011;7577;45.226;5.798;2022-10-16T22:09:23;1.60;;;1.40;;
14965;SDS011;7577;45.226;5.798;2022-10-16T22:11:53;2.07;;;1.50;;
14965;SDS011;7577;45.226;5.798;2022-10-16T22:14:24;1.43;;;1.33;;
14965;SDS011;7577;45.226;5.798;2022-10-16T22:16:54;1.97;;;1.30;;
14965;SDS011;7577;45.226;5.798;2022-10-16T22:19:24;2.27;;;1.47;;
14965;SDS011;7577;45.226;5.798;2022-10-16T22:21:54;2.53;;;1.40;;
14965;SDS011;7577;45.226;5.798;2022-10-16T22:24:26;2.57;;;1.67;;
14965;SDS011;7577;45.226;5.798;2022-10-16T22:27:07;1.57;;;1.40;;
14965;SDS011;7577;45.226;5.798;2022-10-16T22:29:37;1.80;;;1.60;;
14965;SDS011;7577;45.226;5.798;2022-10-16T22:32:07;2.30;;;1.60;;
14965;SDS011;7577;45.226;5.798;2022-10-16T22:34:37;3.60;;;2.43;;
14965;SDS011;7577;45.226;5.798;2022-10-16T22:37:09;2.27;;;1.50;;
14965;SDS011;7577;45.226;5.798;2022-10-16T22:39:39;2.73;;;1.70;;
14965;SDS011;7577;45.226;5.798;2022-10-16T22:42:09;2.07;;;1.60;;
14965;SDS011;7577;45.226;5.798;2022-10-16T22:44:39;2.57;;;1.60;;
14965;SDS011;7577;45.226;5.798;2022-10-16T22:47:09;1.57;;;1.47;;
14965;SDS011;7577;45.226;5.798;2022-10-16T22:49:39;3.63;;;1.80;;
14965;SDS011;7577;45.226;5.798;2022-10-16T22:52:10;4.17;;;1.60;;
14965;SDS011;7577;45.226;5.798;2022-10-16T22:54:41;1.93;;;1.60;;
14965;SDS011;7577;45.226;5.798;2022-10-16T22:57:11;3.50;;;1.60;;
14965;SDS011;7577;45.226;5.798;2022-10-16T22:59:41;3.53;;;1.50;;
14965;SDS011;7577;45.226;5.798;2022-10-16T23:02:12;1.47;;;1.30;;
14965;SDS011;7577;45.226;5.798;2022-10-16T23:04:55;1.60;;;1.50;;
14965;SDS011;7577;45.226;5.798;2022-10-16T23:07:25;2.27;;;1.53;;
14965;SDS011;7577;45.226;5.798;2022-10-16T23:09:57;2.53;;;1.40;;
14965;SDS011;7577;45.226;5.798;2022-10-16T23:12:27;3.60;;;1.73;;
14965;SDS011;7577;45.226;5.798;2022-10-16T23:14:58;2.87;;;1.70;;
14965;SDS011;7577;45.226;5.798;2022-10-16T23:17:28;6.33;;;1.47;;
14965;SDS011;7577;45.226;5.798;2022-10-16T23:19:58;2.13;;;1.90;;
14965;SDS011;7577;45.226;5.798;2022-10-16T23:22:28;3.10;;;1.63;;
14965;SDS011;7577;45.226;5.798;2022-10-16T23:25:09;2.50;;;1.63;;
14965;SDS011;7577;45.226;5.798;2022-10-16T23:27:39;2.33;;;1.60;;
14965;SDS011;7577;45.226;5.798;2022-10-16T23:30:10;2.87;;;1.80;;
14965;SDS011;7577;45.226;5.798;2022-10-16T23:32:40;3.53;;;2.03;;
14965;SDS011;7577;45.226;5.798;2022-10-16T23:35:10;2.73;;;1.93;;
14965;SDS011;7577;45.226;5.798;2022-10-16T23:37:58;2.83;;;1.90;;
14965;SDS011;7577;45.226;5.798;2022-10-16T23:40:28;2.67;;;1.50;;
14965;SDS011;7577;45.226;5.798;2022-10-16T23:42:58;2.63;;;1.73;;
14965;SDS011;7577;45.226;5.798;2022-10-16T23:45:29;2.83;;;2.00;;
14965;SDS011;7577;45.226;5.798;2022-10-16T23:47:59;2.80;;;1.73;;
14965;SDS011;7577;45.226;5.798;2022-10-16T23:50:29;3.53;;;1.90;;
14965;SDS011;7577;45.226;5.798;2022-10-16T23:52:59;3.17;;;1.63;;
14965;SDS011;7577;45.226;5.798;2022-10-16T23:55:30;3.43;;;1.87;;
14965;SDS011;7577;45.226;5.798;2022-10-16T23:58:00;3.37;;;1.80;;
